Time;durP1;ratioP1;P1;durP2;ratioP2;P2;SDS_P1;SDS_P2;PMS_P1;PMS_P2;Temp;Humidity;BMP_temperature;BMP_pressure;BME280_temperature;BME280_humidity;BME280_pressure;Samples;Min_cycle;Max_cycle;Signal;HPM_P1;HPM_P2
2024/01/20 00:04:16;;;;;;;26.40;13.10;;;;;;;1.17;60.98;99625.64;231505;198;138092;-55
2024/01/20 00:09:19;;;;;;;27.50;12.30;;;;;;;1.20;61.09;99627.19;231228;199;138711;-54
2024/01/20 00:14:23;;;;;;;28.20;12.60;;;;;;;1.17;61.31;99610.96;231546;199;153035;-54
2024/01/20 00:19:27;;;;;;;26.20;12.60;;;;;;;1.17;61.13;99629.66;231500;198;138034;-52
2024/01/20 00:24:30;;;;;;;26.20;12.30;;;;;;;1.17;61.08;99637.70;231539;199;138430;-54
2024/01/20 00:29:33;;;;;;;32.40;12.70;;;;;;;1.15;61.27;99641.73;231630;205;153450;-55
2024/01/20 00:34:36;;;;;;;27.10;11.10;;;;;;;1.12;61.39;99644.06;231417;199;138620;-54
2024/01/20 00:40:00;;;;;;;26.60;11.90;;;;;;;1.15;61.22;99645.95;231510;199;138320;-52
2024/01/20 00:45:07;;;;;;;27.80;12.00;;;;;;;1.17;61.33;99649.23;231487;198;154162;-52
2024/01/20 00:50:11;;;;;;;26.90;12.10;;;;;;;1.19;61.36;99651.48;231471;199;138505;-55
2024/01/20 00:55:14;;;;;;;26.30;11.90;;;;;;;1.24;61.31;99661.01;231559;206;137996;-55
2024/01/20 01:00:17;;;;;;;28.50;10.60;;;;;;;1.23;61.32;99666.63;231547;206;154488;-55
2024/01/20 01:05:20;;;;;;;26.50;11.00;;;;;;;1.25;61.44;99671.66;231665;203;141444;-54
2024/01/20 01:10:24;;;;;;;22.30;11.00;;;;;;;1.23;61.49;99671.52;231325;205;139624;-54
2024/01/20 01:15:29;;;;;;;24.70;10.60;;;;;;;1.25;61.56;99669.04;231482;206;153019;-52
2024/01/20 01:20:32;;;;;;;22.50;10.30;;;;;;;1.27;61.44;99668.86;231646;199;137887;-55
2024/01/20 01:25:35;;;;;;;23.60;10.50;;;;;;;1.25;61.42;99665.90;231602;203;138463;-55
2024/01/20 01:30:38;;;;;;;24.50;10.70;;;;;;;1.22;61.29;99668.39;231561;199;154000;-53
2024/01/20 01:35:41;;;;;;;20.40;10.50;;;;;;;1.26;61.08;99662.03;231685;198;138213;-52
2024/01/20 01:40:44;;;;;;;22.00;10.30;;;;;;;1.30;60.80;99663.73;231546;199;138413;-52
2024/01/20 01:45:47;;;;;;;23.40;10.90;;;;;;;1.30;60.84;99664.77;230917;199;153027;-51
2024/01/20 01:50:53;;;;;;;20.00;10.50;;;;;;;1.35;60.73;99660.86;231579;199;138125;-52
2024/01/20 01:55:56;;;;;;;21.80;9.90;;;;;;;1.40;60.50;99658.52;231542;199;138373;-52
2024/01/20 02:01:00;;;;;;;20.50;9.30;;;;;;;1.35;60.51;99662.79;231636;198;153013;-52
2024/01/20 02:06:03;;;;;;;22.70;10.20;;;;;;;1.32;60.57;99664.40;231577;201;138059;-50
2024/01/20 02:11:07;;;;;;;19.20;10.30;;;;;;;1.34;60.64;99669.25;231765;205;137806;-52
2024/01/20 02:16:10;;;;;;;22.40;10.50;;;;;;;1.33;60.60;99677.48;231615;199;153190;-53
2024/01/20 02:21:13;;;;;;;20.30;9.60;;;;;;;1.32;60.56;99677.86;231646;198;139833;-52
2024/01/20 02:26:17;;;;;;;16.70;8.70;;;;;;;1.37;60.46;99680.23;231713;199;137960;-53
2024/01/20 02:31:20;;;;;;;18.10;8.30;;;;;;;1.34;60.25;99677.31;231630;199;153357;-52
2024/01/20 02:36:23;;;;;;;20.30;7.70;;;;;;;1.28;60.21;99673.90;231719;203;139196;-53
2024/01/20 02:41:27;;;;;;;15.80;7.80;;;;;;;1.28;60.01;99678.27;231726;198;138038;-53
2024/01/20 02:46:30;;;;;;;14.80;7.40;;;;;;;1.24;60.09;99685.85;231582;198;153398;-53
2024/01/20 02:51:33;;;;;;;12.20;7.60;;;;;;;1.17;60.02;99689.77;231617;205;138634;-53
2024/01/20 02:56:36;;;;;;;14.20;7.50;;;;;;;1.10;60.10;99693.54;231006;199;138890;-54
2024/01/20 03:01:39;;;;;;;17.00;7.20;;;;;;;1.12;59.96;99690.88;231606;199;154095;-53
2024/01/20 03:06:43;;;;;;;14.20;7.20;;;;;;;1.09;60.07;99694.77;231572;198;138946;-54
2024/01/20 03:11:46;;;;;;;13.90;7.30;;;;;;;1.04;59.95;99700.25;231565;198;138521;-54
2024/01/20 03:16:49;;;;;;;13.60;6.90;;;;;;;0.96;60.15;99708.05;231681;199;153265;-54
2024/01/20 03:21:53;;;;;;;14.80;6.80;;;;;;;0.90;60.28;99709.86;231040;203;138730;-53
2024/01/20 03:26:56;;;;;;;11.20;7.20;;;;;;;0.89;60.41;99707.95;231572;198;138456;-54
2024/01/20 03:32:02;;;;;;;12.70;7.20;;;;;;;0.88;60.29;99706.91;231680;197;155800;-51
2024/01/20 03:37:05;;;;;;;16.20;7.70;;;;;;;0.89;60.30;99713.02;231619;199;138499;-52
2024/01/20 03:42:08;;;;;;;14.80;6.90;;;;;;;0.87;60.24;99709.02;231759;197;138408;-54
2024/01/20 03:47:12;;;;;;;15.60;7.00;;;;;;;0.89;60.21;99702.02;231722;199;153353;-54
2024/01/20 03:52:15;;;;;;;16.20;7.60;;;;;;;0.92;60.05;99699.19;231659;199;138177;-55
2024/01/20 03:57:18;;;;;;;14.20;6.70;;;;;;;0.94;59.86;99689.54;231595;198;141235;-55
2024/01/20 04:02:21;;;;;;;15.30;7.30;;;;;;;0.92;59.90;99691.66;231675;198;153333;-55
2024/01/20 04:07:24;;;;;;;14.10;7.50;;;;;;;0.85;59.91;99694.90;231572;199;138748;-53
2024/01/20 04:12:27;;;;;;;13.20;7.10;;;;;;;0.89;59.72;99694.85;231596;198;138322;-52
2024/01/20 04:17:31;;;;;;;14.40;6.80;;;;;;;0.89;59.55;99694.86;231702;200;153957;-54
2024/01/20 04:22:34;;;;;;;14.80;7.30;;;;;;;0.91;59.33;99695.87;231618;199;142334;-55
2024/01/20 04:27:40;;;;;;;17.40;7.70;;;;;;;0.86;59.35;99695.05;231655;203;138307;-54
2024/01/20 04:32:44;;;;;;;14.90;7.60;;;;;;;0.88;59.18;99695.21;231637;205;154760;-55
2024/01/20 04:37:47;;;;;;;14.00;7.20;;;;;;;0.92;59.06;99706.69;231646;197;137528;-53
2024/01/20 04:42:50;;;;;;;15.50;7.10;;;;;;;0.95;58.84;99707.70;231149;202;147307;-52
2024/01/20 04:47:53;;;;;;;12.50;6.40;;;;;;;0.93;58.58;99710.35;231462;199;153762;-55
2024/01/20 04:52:56;;;;;;;15.50;7.10;;;;;;;0.89;58.73;99714.42;231727;198;138316;-51
2024/01/20 04:58:01;;;;;;;14.90;6.90;;;;;;;0.90;58.65;99716.32;231602;202;138552;-51
2024/01/20 05:03:04;;;;;;;12.90;6.80;;;;;;;0.90;58.61;99726.47;231567;199;154291;-55
2024/01/20 05:08:07;;;;;;;18.00;6.90;;;;;;;0.88;58.54;99732.94;231578;205;138484;-53
2024/01/20 05:13:10;;;;;;;13.00;6.40;;;;;;;0.89;58.53;99739.22;231541;206;139687;-52
2024/01/20 05:18:13;;;;;;;44.70;27.00;;;;;;;0.94;59.15;99740.73;231699;203;153268;-56
2024/01/20 05:23:18;;;;;;;62.10;38.70;;;;;;;0.96;58.47;99744.90;231682;198;139612;-54
2024/01/20 05:28:21;;;;;;;14.00;8.80;;;;;;;0.90;58.46;99749.00;231651;198;138608;-54
2024/01/20 05:33:24;;;;;;;17.10;6.80;;;;;;;0.92;58.47;99743.02;231566;198;153263;-54
2024/01/20 05:38:27;;;;;;;16.70;6.50;;;;;;;0.91;58.20;99748.11;231535;199;138134;-55
2024/01/20 05:43:31;;;;;;;12.40;6.30;;;;;;;0.85;58.16;99750.79;231601;202;138311;-55
2024/01/20 05:48:34;;;;;;;17.10;6.80;;;;;;;0.81;58.38;99752.77;231552;206;153094;-55
2024/01/20 05:53:38;;;;;;;11.00;6.20;;;;;;;0.82;58.30;99753.10;231611;206;138118;-55
2024/01/20 05:58:41;;;;;;;12.80;6.20;;;;;;;0.80;58.23;99762.38;231619;198;138119;-56
2024/01/20 06:03:44;;;;;;;12.50;5.80;;;;;;;0.80;58.31;99759.23;231599;198;153242;-54
2024/01/20 06:08:47;;;;;;;12.20;5.70;;;;;;;0.76;58.43;99762.41;231623;199;138299;-55
2024/01/20 06:13:51;;;;;;;127.80;98.10;;;;;;;0.75;58.44;99769.76;231653;198;138238;-54
2024/01/20 06:18:54;;;;;;;13.40;7.50;;;;;;;0.83;59.02;99777.73;231468;198;154510;-54
2024/01/20 06:23:57;;;;;;;13.00;6.10;;;;;;;0.89;58.36;99781.14;231638;198;137937;-54
2024/01/20 06:29:02;;;;;;;13.10;5.90;;;;;;;0.86;58.10;99787.81;231682;205;138092;-55
2024/01/20 06:34:05;;;;;;;11.00;5.80;;;;;;;0.87;58.12;99791.66;231643;198;153713;-54
2024/01/20 06:39:08;;;;;;;11.70;6.00;;;;;;;0.87;57.82;99801.60;231640;198;137702;-55
2024/01/20 06:44:12;;;;;;;9.70;5.60;;;;;;;0.84;57.86;99810.89;231610;199;138271;-50
2024/01/20 06:49:15;;;;;;;26.10;16.30;;;;;;;0.78;58.05;99824.75;231685;198;154019;-56
2024/01/20 06:54:18;;;;;;;15.20;7.70;;;;;;;0.85;58.37;99823.29;231304;199;140820;-53
2024/01/20 06:59:22;;;;;;;14.40;6.40;;;;;;;0.83;57.85;99827.67;231617;198;139238;-55
2024/01/20 07:04:25;;;;;;;10.30;5.80;;;;;;;0.80;57.81;99830.84;231679;202;153264;-57
2024/01/20 07:09:28;;;;;;;10.80;6.10;;;;;;;0.81;57.77;99833.11;231635;198;138574;-56
2024/01/20 07:14:31;;;;;;;11.90;6.10;;;;;;;0.85;57.65;99829.23;231645;198;138297;-57
2024/01/20 07:19:34;;;;;;;11.20;6.00;;;;;;;0.87;57.37;99840.02;231592;205;153124;-55
2024/01/20 07:24:38;;;;;;;12.10;6.00;;;;;;;0.81;57.38;99831.88;231607;198;137610;-58
2024/01/20 07:29:41;;;;;;;11.40;6.20;;;;;;;0.90;57.60;99826.20;231776;198;234832;-58
2024/01/20 07:34:45;;;;;;;13.60;6.60;;;;;;;0.93;57.51;99829.66;231677;198;155195;-57
2024/01/20 07:39:48;;;;;;;12.70;6.40;;;;;;;1.02;57.45;99838.13;231617;198;139254;-59
2024/01/20 07:44:51;;;;;;;14.10;7.20;;;;;;;1.09;57.35;99843.64;231679;199;139612;-58
2024/01/20 07:49:54;;;;;;;12.10;5.40;;;;;;;1.17;57.16;99843.55;231622;198;153689;-59
2024/01/20 07:54:57;;;;;;;15.70;6.90;;;;;;;1.11;57.20;99849.55;231672;198;140395;-59
2024/01/20 08:00:02;;;;;;;14.40;6.00;;;;;;;1.12;57.48;99848.16;231761;198;142188;-57
2024/01/20 08:05:12;;;;;;;12.40;6.30;;;;;;;1.09;57.33;99858.33;231843;199;153878;-58
2024/01/20 08:10:15;;;;;;;12.50;6.30;;;;;;;1.12;57.28;99863.90;231607;205;138715;-58
2024/01/20 08:15:18;;;;;;;17.70;6.70;;;;;;;1.14;57.24;99879.24;231603;203;140849;-58
2024/01/20 08:20:21;;;;;;;15.40;7.00;;;;;;;1.13;57.06;99892.35;231566;203;153207;-58
2024/01/20 08:25:24;;;;;;;14.30;7.00;;;;;;;1.19;57.25;99899.64;231615;198;138143;-58
2024/01/20 08:30:28;;;;;;;15.00;6.50;;;;;;;1.19;57.16;99902.44;231610;202;138368;-59
2024/01/20 08:35:32;;;;;;;13.50;5.70;;;;;;;1.15;57.14;99900.02;231641;197;153693;-59
2024/01/20 08:40:35;;;;;;;16.20;7.40;;;;;;;1.09;57.63;99897.82;231602;198;139457;-58
2024/01/20 08:45:38;;;;;;;15.60;6.90;;;;;;;1.21;57.72;99895.77;231642;199;138721;-57
2024/01/20 08:50:41;;;;;;;13.70;7.00;;;;;;;1.37;57.58;99888.61;231563;199;153054;-58
2024/01/20 08:55:44;;;;;;;12.00;6.40;;;;;;;1.45;57.11;99889.92;231562;199;137226;-57
2024/01/20 09:00:48;;;;;;;12.80;6.70;;;;;;;1.49;56.64;99892.32;231696;202;137731;-58
2024/01/20 09:05:52;;;;;;;98.00;52.30;;;;;;;1.55;56.93;99899.42;231467;205;154028;-59
2024/01/20 09:10:56;;;;;;;15.80;8.90;;;;;;;1.70;56.78;99904.85;231559;198;139410;-58
2024/01/20 09:15:59;;;;;;;12.40;6.30;;;;;;;1.63;55.89;99912.97;231525;198;138246;-59
2024/01/20 09:21:03;;;;;;;16.50;6.50;;;;;;;1.64;56.06;99921.35;231532;199;154464;-59
2024/01/20 09:26:06;;;;;;;13.30;6.80;;;;;;;1.73;56.03;99930.52;231542;198;139184;-58
2024/01/20 09:31:09;;;;;;;13.80;7.00;;;;;;;1.85;55.60;99929.14;231515;198;138292;-59
2024/01/20 09:36:12;;;;;;;11.00;6.10;;;;;;;1.98;54.98;99931.96;231558;199;153821;-55
2024/01/20 09:41:16;;;;;;;15.50;7.00;;;;;;;2.04;54.83;99938.02;231630;202;138105;-58
2024/01/20 09:46:19;;;;;;;13.60;6.20;;;;;;;2.06;54.41;99941.13;231641;199;138623;-58
2024/01/20 09:51:31;;;;;;;13.80;6.90;;;;;;;2.05;54.49;99940.78;231459;203;154319;-59
2024/01/20 09:56:34;;;;;;;16.20;7.20;;;;;;;2.14;54.65;99937.00;231494;202;141660;-57
2024/01/20 10:01:40;;;;;;;26.90;13.40;;;;;;;2.24;54.57;99940.38;231314;198;138805;-59
2024/01/20 10:06:44;;;;;;;15.10;7.50;;;;;;;2.39;53.77;99941.71;231461;205;273005;-58
2024/01/20 10:11:47;;;;;;;17.00;7.50;;;;;;;2.42;53.66;99933.11;231563;198;137399;-57
2024/01/20 10:16:51;;;;;;;13.90;7.10;;;;;;;2.42;53.76;99930.48;231759;198;138421;-58
2024/01/20 10:21:54;;;;;;;16.20;6.60;;;;;;;2.48;53.48;99929.02;231609;202;153917;-59
2024/01/20 10:26:58;;;;;;;16.00;6.70;;;;;;;2.58;53.68;99911.33;231578;205;139116;-59
2024/01/20 10:32:02;;;;;;;16.60;7.50;;;;;;;2.70;53.23;99904.66;231568;198;138286;-59
2024/01/20 10:37:13;;;;;;;14.50;7.30;;;;;;;2.82;53.59;99897.09;231566;206;153620;-59
2024/01/20 10:42:18;;;;;;;13.50;6.70;;;;;;;3.04;53.02;99891.98;231580;199;138031;-58
2024/01/20 10:47:32;;;;;;;14.10;6.50;;;;;;;3.04;52.45;99890.77;231700;197;138336;-57
2024/01/20 10:52:35;;;;;;;13.70;6.60;;;;;;;3.06;52.33;99891.25;231587;203;153676;-59
2024/01/20 10:57:38;;;;;;;14.40;6.90;;;;;;;3.06;52.41;99890.90;231666;199;137573;-58
2024/01/20 11:02:42;;;;;;;17.80;7.30;;;;;;;3.15;52.82;99891.79;231569;203;138013;-59
2024/01/20 11:08:03;;;;;;;16.80;6.30;;;;;;;3.21;52.52;99895.70;231586;202;153680;-57
2024/01/20 11:13:09;;;;;;;16.20;6.30;;;;;;;3.24;52.11;99890.41;231684;198;139028;-58
2024/01/20 11:18:20;;;;;;;18.40;6.60;;;;;;;3.28;52.10;99881.03;231627;203;140109;-57
2024/01/20 11:23:25;;;;;;;12.40;5.90;;;;;;;3.39;52.31;99872.40;231665;205;154528;-58
2024/01/20 11:28:35;;;;;;;14.30;6.50;;;;;;;3.40;51.75;99873.28;231456;198;138121;-59
2024/01/20 11:33:39;;;;;;;11.90;6.10;;;;;;;3.39;51.98;99863.81;231556;199;138223;-57
2024/01/20 11:38:43;;;;;;;12.90;6.10;;;;;;;3.47;52.24;99863.48;231610;198;153939;-58
2024/01/20 11:43:46;;;;;;;13.40;6.30;;;;;;;3.59;52.19;99856.04;231508;203;138572;-58
2024/01/20 11:48:50;;;;;;;14.90;6.40;;;;;;;3.72;52.04;99852.44;231541;198;138613;-59
2024/01/20 11:53:54;;;;;;;13.80;6.60;;;;;;;3.79;51.78;99848.26;231551;198;153389;-58
2024/01/20 11:58:57;;;;;;;13.80;6.30;;;;;;;3.88;51.78;99845.77;231681;199;138274;-58
2024/01/20 12:04:00;;;;;;;15.90;6.70;;;;;;;3.94;51.13;99833.54;231473;202;139024;-58
2024/01/20 12:09:04;;;;;;;11.90;6.10;;;;;;;3.99;50.97;99823.95;231686;202;154630;-55
2024/01/20 12:14:08;;;;;;;12.80;6.50;;;;;;;4.08;50.27;99820.23;231501;198;138478;-55
2024/01/20 12:19:11;;;;;;;12.70;6.10;;;;;;;4.12;49.26;99823.28;231551;198;138054;-57
2024/01/20 12:24:14;;;;;;;10.90;5.40;;;;;;;4.08;48.85;99817.42;231556;198;153980;-59
2024/01/20 12:29:18;;;;;;;15.00;6.50;;;;;;;4.10;48.56;99816.67;231622;205;138716;-58
2024/01/20 12:34:24;;;;;;;13.80;6.50;;;;;;;4.09;48.15;99814.41;231623;198;138289;-57
2024/01/20 12:39:28;;;;;;;13.40;6.60;;;;;;;4.04;48.13;99815.92;231594;198;154099;-56
2024/01/20 12:44:31;;;;;;;14.20;6.60;;;;;;;4.10;48.50;99822.64;231560;203;137471;-57
2024/01/20 12:49:40;;;;;;;12.90;6.20;;;;;;;4.22;48.06;99832.01;231636;198;138057;-57
2024/01/20 12:54:44;;;;;;;12.70;6.10;;;;;;;4.32;48.00;99838.64;231574;205;153500;-59
2024/01/20 12:59:51;;;;;;;14.80;6.40;;;;;;;4.38;48.00;99841.66;231548;205;138988;-59
2024/01/20 13:05:10;;;;;;;13.80;6.30;;;;;;;4.46;47.89;99840.56;231692;206;138264;-60
2024/01/20 13:10:14;;;;;;;12.60;5.80;;;;;;;4.43;47.98;99841.89;231643;197;155163;-59
2024/01/20 13:15:23;;;;;;;13.70;6.10;;;;;;;4.45;48.11;99841.48;231629;197;138213;-58
2024/01/20 13:20:27;;;;;;;11.80;6.20;;;;;;;4.42;47.97;99836.47;231577;199;138476;-60
2024/01/20 13:25:31;;;;;;;14.60;6.50;;;;;;;4.44;47.56;99831.31;231566;203;153219;-59
2024/01/20 13:30:35;;;;;;;11.00;6.00;;;;;;;4.45;47.48;99828.12;231618;198;138748;-59
2024/01/20 13:35:38;;;;;;;11.90;5.80;;;;;;;4.47;47.62;99832.27;231640;203;138727;-59
2024/01/20 13:40:41;;;;;;;12.70;5.90;;;;;;;4.43;46.94;99837.13;230998;199;153369;-58
2024/01/20 13:45:46;;;;;;;11.90;5.70;;;;;;;4.39;47.21;99836.02;231528;199;138147;-57
2024/01/20 13:50:49;;;;;;;9.60;6.10;;;;;;;4.40;47.06;99833.88;231456;206;137072;-57
2024/01/20 13:55:53;;;;;;;14.10;5.90;;;;;;;4.35;47.12;99839.80;231495;203;153891;-58
2024/01/20 14:00:56;;;;;;;14.40;5.90;;;;;;;4.28;47.14;99844.01;231510;198;137863;-56
2024/01/20 14:06:03;;;;;;;15.60;6.30;;;;;;;4.20;47.57;99843.31;231458;198;137596;-58
2024/01/20 14:11:06;;;;;;;15.20;6.20;;;;;;;4.17;47.53;99848.83;231672;206;152943;-58
2024/01/20 14:16:10;;;;;;;9.80;6.00;;;;;;;4.10;47.44;99856.02;231514;205;138424;-58
2024/01/20 14:21:13;;;;;;;14.10;5.90;;;;;;;3.94;47.37;99860.21;231617;198;138455;-57
2024/01/20 14:26:16;;;;;;;11.30;5.80;;;;;;;3.82;47.67;99854.34;231539;203;154324;-59
2024/01/20 14:31:20;;;;;;;12.50;6.60;;;;;;;3.70;47.68;99866.35;231579;198;138173;-58
2024/01/20 14:36:23;;;;;;;12.60;6.40;;;;;;;3.63;48.08;99860.01;231521;199;139142;-58
2024/01/20 14:41:27;;;;;;;12.00;5.90;;;;;;;3.54;48.09;99860.17;231743;198;153805;-58
2024/01/20 14:46:32;;;;;;;13.20;6.60;;;;;;;3.40;48.12;99866.61;231633;198;138148;-57
2024/01/20 14:51:36;;;;;;;13.20;7.00;;;;;;;3.30;48.53;99866.26;231592;199;138287;-57
2024/01/20 14:56:41;;;;;;;13.40;6.30;;;;;;;3.27;48.60;99874.73;231571;198;153222;-57
2024/01/20 15:01:47;;;;;;;14.60;6.70;;;;;;;3.20;48.73;99877.32;231373;198;138685;-58
2024/01/20 15:06:50;;;;;;;13.20;6.90;;;;;;;3.16;48.84;99883.01;231564;199;138360;-59
2024/01/20 15:12:07;;;;;;;15.10;6.30;;;;;;;3.09;48.66;99892.42;231474;202;153813;-58
2024/01/20 15:17:12;;;;;;;15.40;7.70;;;;;;;3.00;48.99;99899.25;231580;198;138614;-58
2024/01/20 15:22:15;;;;;;;13.80;7.00;;;;;;;2.93;48.99;99906.72;231534;205;138621;-58
2024/01/20 15:27:18;;;;;;;14.00;7.30;;;;;;;2.89;49.25;99909.95;231486;206;153272;-57
2024/01/20 15:32:25;;;;;;;11.30;6.80;;;;;;;2.91;48.87;99917.82;231502;205;138828;-58
2024/01/20 15:37:28;;;;;;;;;;;;;;;2.83;48.99;99925.13;231264;199;138759;-56
2024/01/20 15:42:31;;;;;;;15.20;7.70;;;;;;;2.74;49.27;99937.36;231601;205;153816;-57
2024/01/20 15:47:35;;;;;;;14.90;7.40;;;;;;;2.64;49.40;99938.04;231614;198;138241;-55
2024/01/20 15:52:38;;;;;;;17.50;8.30;;;;;;;2.59;49.60;99951.08;231553;199;137863;-57
2024/01/20 15:57:50;;;;;;;13.40;7.70;;;;;;;2.55;49.73;99957.60;231546;205;154030;-57
2024/01/20 16:02:53;;;;;;;15.10;8.10;;;;;;;2.47;49.98;99966.14;231467;198;138900;-58
2024/01/20 16:07:57;;;;;;;16.40;8.00;;;;;;;2.42;50.09;99963.77;231505;206;137906;-58
2024/01/20 16:13:01;;;;;;;15.20;8.30;;;;;;;2.40;50.25;99960.98;231404;198;154052;-57
2024/01/20 16:18:05;;;;;;;18.10;8.40;;;;;;;2.33;50.21;99961.77;231531;198;137173;-57
2024/01/20 16:23:23;;;;;;;12.80;7.40;;;;;;;2.32;50.30;99960.23;231715;199;138003;-56
2024/01/20 16:28:27;;;;;;;15.20;7.20;;;;;;;2.28;50.49;99957.81;231467;199;154077;-55
2024/01/20 16:33:34;;;;;;;16.10;8.20;;;;;;;2.27;50.47;99965.71;231492;202;139704;-51
2024/01/20 16:38:40;;;;;;;14.20;8.10;;;;;;;2.23;50.39;99971.55;231594;198;139642;-55
2024/01/20 16:43:43;;;;;;;16.10;8.00;;;;;;;2.14;50.63;99976.21;231545;199;153569;-55
2024/01/20 16:48:47;;;;;;;16.20;8.70;;;;;;;2.09;51.01;99976.27;231301;198;138502;-55
2024/01/20 16:53:53;;;;;;;18.40;8.10;;;;;;;1.99;51.24;99988.13;231439;198;248794;-56
2024/01/20 16:58:57;;;;;;;15.70;8.00;;;;;;;1.91;51.37;99994.02;231659;198;153992;-55
2024/01/20 17:04:01;;;;;;;18.00;8.70;;;;;;;1.83;51.72;100007.21;231508;198;138825;-57
2024/01/20 17:09:05;;;;;;;117.40;83.50;;;;;;;1.84;51.85;100009.81;231460;204;138449;-57
2024/01/20 17:14:08;;;;;;;21.20;10.30;;;;;;;1.88;52.48;100010.12;231556;203;153343;-57
2024/01/20 17:19:13;;;;;;;19.10;9.30;;;;;;;1.88;51.98;100005.23;231526;198;138332;-54
2024/01/20 17:24:17;;;;;;;148.60;94.90;;;;;;;1.80;52.25;100012.67;231541;198;138364;-58
2024/01/20 17:29:21;;;;;;;15.90;10.10;;;;;;;1.82;52.31;100016.66;231606;198;154258;-57
2024/01/20 17:34:24;;;;;;;19.40;8.80;;;;;;;1.79;52.19;100025.80;231433;205;138448;-58
2024/01/20 17:39:28;;;;;;;14.80;7.80;;;;;;;1.70;52.31;100037.42;231494;198;140729;-56
2024/01/20 17:44:32;;;;;;;18.50;8.90;;;;;;;1.59;52.50;100042.61;231460;206;154880;-57
2024/01/20 17:49:35;;;;;;;16.50;8.50;;;;;;;1.53;52.73;100051.05;231519;198;138199;-58
2024/01/20 17:54:39;;;;;;;15.10;8.80;;;;;;;1.42;52.93;100062.17;231512;202;140204;-57
2024/01/20 17:59:44;;;;;;;19.50;9.80;;;;;;;1.43;52.96;100070.90;231526;202;153824;-58
2024/01/20 18:04:48;;;;;;;17.30;9.20;;;;;;;1.41;53.12;100080.17;231424;206;137960;-58
2024/01/20 18:09:52;;;;;;;17.90;8.90;;;;;;;1.32;53.15;100082.70;231528;203;138669;-58
2024/01/20 18:14:55;;;;;;;17.00;9.60;;;;;;;1.30;53.19;100085.16;231471;199;154558;-58
2024/01/20 18:19:58;;;;;;;16.40;9.00;;;;;;;1.28;53.20;100088.84;231541;198;138952;-58
2024/01/20 18:25:02;;;;;;;229.80;150.20;;;;;;;1.25;54.10;100105.64;231491;199;138109;-58
2024/01/20 18:30:06;;;;;;;27.70;13.50;;;;;;;1.36;53.89;100114.14;231510;198;153380;-57
2024/01/20 18:35:11;;;;;;;18.30;10.50;;;;;;;1.34;53.07;100118.52;231621;205;138602;-56
2024/01/20 18:40:15;;;;;;;19.40;9.70;;;;;;;1.30;53.17;100125.37;231551;198;137805;-54
2024/01/20 18:45:18;;;;;;;21.10;10.00;;;;;;;1.30;53.18;100134.28;231554;202;153136;-56
2024/01/20 18:50:22;;;;;;;19.80;10.00;;;;;;;1.26;53.18;100139.55;231426;198;139951;-54
2024/01/20 18:55:25;;;;;;;19.00;9.10;;;;;;;1.25;53.10;100150.57;231424;199;138260;-54
2024/01/20 19:00:28;;;;;;;19.00;9.60;;;;;;;1.24;53.12;100142.73;231438;203;153997;-56
2024/01/20 19:05:32;;;;;;;18.60;10.30;;;;;;;1.26;53.30;100156.88;231307;205;138799;-57
2024/01/20 19:10:39;;;;;;;19.00;9.80;;;;;;;1.23;53.24;100154.45;231605;205;138600;-55
2024/01/20 19:15:45;;;;;;;18.60;9.50;;;;;;;1.20;53.22;100165.29;231609;197;153373;-53
2024/01/20 19:20:49;;;;;;;20.80;10.80;;;;;;;1.18;53.26;100169.66;231753;197;139617;-56
2024/01/20 19:25:53;;;;;;;19.60;10.20;;;;;;;1.25;53.35;100167.36;231675;204;138469;-56
2024/01/20 19:30:56;;;;;;;20.00;9.50;;;;;;;1.28;53.35;100164.01;231780;198;153353;-54
2024/01/20 19:35:59;;;;;;;110.00;62.20;;;;;;;1.28;53.54;100167.16;231761;198;138161;-52
2024/01/20 19:41:03;;;;;;;21.50;11.50;;;;;;;1.46;54.41;100169.66;231919;201;138741;-57
2024/01/20 19:46:06;;;;;;;22.50;11.90;;;;;;;1.50;53.46;100162.83;231754;197;154742;-66
2024/01/20 19:51:09;;;;;;;21.00;10.20;;;;;;;1.50;53.15;100173.65;231393;198;139186;-58
2024/01/20 19:56:12;;;;;;;17.80;9.90;;;;;;;1.44;53.38;100187.17;231760;201;137909;-58
2024/01/20 20:01:15;;;;;;;16.60;9.70;;;;;;;1.39;53.39;100203.62;231765;201;152938;-58
2024/01/20 20:06:18;;;;;;;16.70;9.50;;;;;;;1.39;53.62;100209.23;231842;197;138003;-59
2024/01/20 20:11:22;;;;;;;19.80;11.20;;;;;;;1.46;53.75;100214.77;231917;205;138111;-59
2024/01/20 20:16:25;;;;;;;20.20;11.00;;;;;;;1.49;53.62;100208.99;231819;201;153865;-59
2024/01/20 20:21:29;;;;;;;21.20;10.80;;;;;;;1.50;53.55;100206.38;231777;198;138099;-59
2024/01/20 20:26:32;;;;;;;21.70;10.80;;;;;;;1.52;53.75;100205.30;231785;197;138677;-56
2024/01/20 20:31:35;;;;;;;19.00;10.10;;;;;;;1.51;53.79;100210.02;231786;198;154130;-58
2024/01/20 20:36:39;;;;;;;19.40;10.90;;;;;;;1.44;54.00;100206.05;231764;202;138940;-58
2024/01/20 20:41:43;;;;;;;19.90;10.20;;;;;;;1.48;53.93;100216.52;232181;202;137996;-59
2024/01/20 20:46:46;;;;;;;22.70;10.90;;;;;;;1.53;54.02;100221.73;231732;198;154289;-58
2024/01/20 20:51:50;;;;;;;18.70;10.60;;;;;;;1.53;54.13;100219.80;231461;202;141598;-58
2024/01/20 20:56:53;;;;;;;22.90;10.70;;;;;;;1.56;53.96;100223.47;231693;197;138126;-58
2024/01/20 21:01:56;;;;;;;20.00;10.70;;;;;;;1.61;54.02;100226.58;231627;199;153284;-58
2024/01/20 21:07:02;;;;;;;22.70;11.30;;;;;;;1.62;53.93;100229.02;231610;201;140865;-54
2024/01/20 21:12:06;;;;;;;18.00;9.60;;;;;;;1.65;53.89;100231.81;231804;198;138811;-58
2024/01/20 21:17:09;;;;;;;20.50;10.30;;;;;;;1.64;54.02;100231.45;231848;199;153607;-58
2024/01/20 21:22:12;;;;;;;18.00;9.80;;;;;;;1.75;54.03;100231.20;231698;198;139558;-58
2024/01/20 21:27:15;;;;;;;22.30;10.40;;;;;;;1.82;53.84;100224.51;231732;198;137137;-58
2024/01/20 21:32:20;;;;;;;20.00;9.80;;;;;;;1.90;53.71;100230.05;231470;199;153843;-57
2024/01/20 21:37:24;;;;;;;19.50;9.80;;;;;;;1.92;53.75;100233.00;231476;198;139228;-58
2024/01/20 21:42:27;;;;;;;17.10;9.10;;;;;;;1.96;53.71;100238.23;231866;198;138750;-58
2024/01/20 21:47:30;;;;;;;19.10;9.30;;;;;;;2.01;53.67;100241.52;231862;199;153249;-59
2024/01/20 21:52:33;;;;;;;17.60;10.00;;;;;;;2.05;53.50;100241.48;231340;199;138084;-57
2024/01/20 21:57:36;;;;;;;16.70;9.70;;;;;;;2.08;53.63;100249.52;231817;199;139413;-55
2024/01/20 22:02:41;;;;;;;15.40;8.90;;;;;;;2.07;53.74;100256.70;231841;197;153934;-56
2024/01/20 22:07:45;;;;;;;18.90;9.40;;;;;;;2.09;53.67;100259.30;231756;199;138323;-56
2024/01/20 22:12:48;;;;;;;16.70;9.30;;;;;;;2.15;53.58;100266.61;231964;204;138532;-58
2024/01/20 22:17:52;;;;;;;18.60;8.90;;;;;;;2.17;53.60;100272.72;231838;205;153423;-56
2024/01/20 22:22:55;;;;;;;22.00;9.50;;;;;;;2.18;53.66;100274.29;231218;198;140521;-57
2024/01/20 22:27:58;;;;;;;19.40;10.00;;;;;;;2.15;53.84;100289.03;231690;202;138028;-57
2024/01/20 22:33:02;;;;;;;16.20;9.40;;;;;;;2.08;53.95;100289.08;231578;204;163768;-59
2024/01/20 22:38:05;;;;;;;16.50;8.80;;;;;;;2.02;54.21;100286.83;231802;198;138226;-58
2024/01/20 22:43:09;;;;;;;19.90;9.60;;;;;;;2.02;53.99;100292.43;231840;198;137979;-56
2024/01/20 22:48:12;;;;;;;17.20;8.60;;;;;;;2.06;54.34;100300.27;230343;201;153837;-56
2024/01/20 22:53:15;;;;;;;19.70;9.50;;;;;;;2.08;54.55;100309.55;230312;202;138740;-54
2024/01/20 22:58:18;;;;;;;15.50;8.00;;;;;;;2.07;54.93;100309.38;231659;198;138436;-57
2024/01/20 23:03:22;;;;;;;16.30;8.10;;;;;;;2.01;55.54;100311.33;230872;203;153343;-54
2024/01/20 23:08:25;;;;;;;14.80;7.90;;;;;;;1.97;55.85;100321.68;231878;203;138003;-57
2024/01/20 23:13:28;;;;;;;17.20;8.10;;;;;;;1.94;56.16;100317.69;232030;206;137997;-56
2024/01/20 23:18:31;;;;;;;14.70;7.20;;;;;;;2.03;56.24;100316.92;231065;205;153775;-56
2024/01/20 23:23:35;;;;;;;14.10;7.10;;;;;;;2.05;56.27;100313.95;231957;198;138601;-59
2024/01/20 23:28:38;;;;;;;15.50;7.50;;;;;;;2.02;56.51;100312.39;230863;203;139111;-54